createdAt,value
2023-05-05T00:00:31.744Z,186.50
2023-05-05T00:01:31.757Z,187.96
2023-05-05T00:02:31.835Z,179.99
2023-05-05T00:03:31.806Z,185.54
2023-05-05T00:04:31.748Z,180.61
2023-05-05T00:05:31.730Z,186.63
2023-05-05T00:06:31.725Z,184.95
2023-05-05T00:07:31.750Z,184.32
2023-05-05T00:08:31.736Z,184.44
2023-05-05T00:09:31.744Z,185.01
2023-05-05T00:10:31.725Z,182.31
2023-05-05T00:11:31.740Z,187.23
2023-05-05T00:12:31.787Z,182.95
2023-05-05T00:13:31.735Z,185.34
2023-05-05T00:14:31.738Z,181.04
2023-05-05T00:15:31.730Z,184.19
2023-05-05T00:16:31.749Z,186.06
2023-05-05T00:17:31.766Z,185.01
2023-05-05T00:18:31.744Z,184.31
2023-05-05T00:19:31.759Z,182.66
2023-05-05T00:20:31.765Z,184.57
2023-05-05T00:21:31.750Z,179.07
2023-05-05T00:22:31.754Z,184.42
2023-05-05T00:23:31.773Z,182.08
2023-05-05T00:24:31.761Z,185.20
2023-05-05T00:25:31.764Z,182.98
2023-05-05T00:26:31.776Z,184.38
2023-05-05T00:27:31.759Z,183.98
2023-05-05T00:28:31.789Z,182.58
2023-05-05T00:29:31.773Z,181.84
2023-05-05T00:30:31.809Z,179.87
2023-05-05T00:31:31.797Z,184.90
2023-05-05T00:32:31.814Z,180.72
2023-05-05T00:33:31.788Z,182.57
2023-05-05T00:34:31.785Z,184.03
2023-05-05T00:35:32.520Z,184.90
2023-05-05T00:36:31.797Z,183.06
2023-05-05T00:37:31.802Z,181.81
2023-05-05T00:38:31.820Z,180.58
2023-05-05T00:39:31.821Z,184.29
2023-05-05T00:40:31.820Z,180.63
2023-05-05T00:41:31.831Z,185.79
2023-05-05T00:42:31.815Z,185.47
2023-05-05T00:43:31.819Z,182.30
2023-05-05T00:44:31.817Z,185.87
2023-05-05T00:45:31.817Z,180.24
2023-05-05T00:46:31.847Z,180.26
2023-05-05T00:47:31.835Z,183.74
2023-05-05T00:48:31.835Z,183.22
2023-05-05T00:49:31.855Z,182.87
2023-05-05T00:50:31.857Z,178.53
2023-05-05T00:51:31.846Z,181.23
2023-05-05T00:52:31.849Z,179.30
2023-05-05T00:53:31.854Z,182.71
2023-05-05T00:54:31.858Z,182.95
2023-05-05T00:55:31.869Z,187.51
2023-05-05T00:56:31.874Z,184.56
2023-05-05T00:57:31.870Z,181.10
2023-05-05T00:58:31.874Z,183.35
2023-05-05T00:59:31.876Z,186.00
2023-05-05T01:00:31.889Z,178.07
2023-05-05T01:01:31.914Z,186.80
2023-05-05T01:02:31.986Z,181.77
2023-05-05T01:03:31.988Z,184.97
2023-05-05T01:04:31.915Z,186.16
2023-05-05T01:05:31.930Z,183.71
2023-05-05T01:06:31.937Z,185.93
2023-05-05T01:07:31.940Z,181.46
2023-05-05T01:08:31.962Z,184.62
2023-05-05T01:09:31.973Z,183.81
2023-05-05T01:10:32.946Z,182.91
2023-05-05T01:11:31.975Z,178.55
2023-05-05T01:12:32.038Z,182.65
2023-05-05T01:13:31.986Z,180.12
2023-05-05T01:14:31.993Z,184.16
2023-05-05T01:15:32.006Z,178.90
2023-05-05T01:16:32.075Z,182.46
2023-05-05T01:17:32.064Z,181.67
2023-05-05T01:18:32.041Z,183.13
2023-05-05T01:19:32.043Z,184.95
2023-05-05T01:20:32.057Z,182.14
2023-05-05T01:21:32.073Z,184.90
2023-05-05T01:22:32.110Z,181.21
2023-05-05T01:23:32.077Z,184.08
2023-05-05T01:24:32.091Z,182.88
2023-05-05T01:25:32.087Z,183.10
2023-05-05T01:26:32.103Z,178.83
2023-05-05T01:27:32.092Z,183.73
2023-05-05T01:28:32.098Z,181.44
2023-05-05T01:29:32.108Z,183.74
2023-05-05T01:30:32.122Z,183.82
2023-05-05T01:31:32.160Z,183.30
2023-05-05T01:32:32.145Z,184.25
2023-05-05T01:33:32.144Z,186.29
2023-05-05T01:34:32.163Z,184.70
2023-05-05T01:35:32.187Z,179.70
2023-05-05T01:36:32.186Z,185.39
2023-05-05T01:37:32.222Z,181.91
2023-05-05T01:38:32.210Z,181.87
2023-05-05T01:39:32.958Z,179.32
2023-05-05T01:40:32.224Z,185.42
2023-05-05T01:41:32.241Z,182.99
2023-05-05T01:42:32.251Z,181.17
2023-05-05T01:43:32.259Z,182.95
2023-05-05T01:44:32.269Z,179.49
2023-05-05T01:45:32.342Z,184.14
2023-05-05T01:46:32.294Z,183.31
2023-05-05T01:47:32.317Z,184.16
2023-05-05T01:48:32.310Z,184.13
2023-05-05T01:49:32.317Z,180.16
2023-05-05T01:50:32.324Z,181.53
2023-05-05T01:51:32.333Z,182.45
2023-05-05T01:52:32.343Z,183.36
2023-05-05T01:53:32.353Z,184.58
2023-05-05T01:54:32.371Z,184.11
2023-05-05T01:55:32.392Z,176.38
2023-05-05T01:56:32.395Z,181.88
2023-05-05T01:57:32.423Z,184.15
2023-05-05T01:58:32.416Z,181.27
2023-05-05T01:59:32.435Z,179.79
2023-05-05T02:00:32.460Z,179.12
2023-05-05T02:01:32.494Z,183.40
2023-05-05T02:02:32.498Z,184.56
2023-05-05T02:03:32.504Z,185.50
2023-05-05T02:04:32.509Z,178.97
2023-05-05T02:05:32.528Z,182.78
2023-05-05T02:06:32.620Z,181.14
2023-05-05T02:07:32.551Z,185.18
2023-05-05T02:08:32.570Z,181.68
2023-05-05T02:09:32.564Z,178.89
2023-05-05T02:10:32.584Z,181.45
2023-05-05T02:11:32.640Z,183.97
2023-05-05T02:12:32.659Z,181.55
2023-05-05T02:13:32.653Z,182.87
2023-05-05T02:14:32.631Z,178.45
2023-05-05T02:15:32.695Z,183.23
2023-05-05T02:16:32.652Z,181.70
2023-05-05T02:17:32.710Z,179.54
2023-05-05T02:18:32.685Z,181.94
2023-05-05T02:19:32.701Z,175.85
2023-05-05T02:20:32.715Z,177.94
2023-05-05T02:21:32.723Z,178.18
2023-05-05T02:22:32.746Z,179.84
2023-05-05T02:23:32.758Z,185.83
2023-05-05T02:24:32.762Z,181.55
2023-05-05T02:25:32.771Z,178.56
2023-05-05T02:26:32.786Z,182.33
2023-05-05T02:27:32.805Z,180.34
2023-05-05T02:28:32.831Z,182.15
2023-05-05T02:29:32.845Z,187.21
2023-05-05T02:30:32.846Z,182.38
2023-05-05T02:31:32.914Z,182.02
2023-05-05T02:32:32.916Z,179.20
2023-05-05T02:33:32.893Z,182.83
2023-05-05T02:34:32.919Z,184.35
2023-05-05T02:35:32.945Z,180.82
2023-05-05T02:36:32.948Z,179.41
2023-05-05T02:37:32.960Z,177.34
2023-05-05T02:38:33.063Z,184.64
2023-05-05T02:39:32.994Z,181.16
2023-05-05T02:40:33.009Z,175.79
2023-05-05T02:41:33.023Z,184.28
2023-05-05T02:42:33.050Z,184.01
2023-05-05T02:43:33.068Z,175.65
2023-05-05T02:44:33.070Z,183.31
2023-05-05T02:45:33.096Z,180.25
2023-05-05T02:46:33.126Z,176.81
2023-05-05T02:47:33.124Z,182.40
2023-05-05T02:48:33.113Z,181.36
2023-05-05T02:49:33.129Z,180.26
2023-05-05T02:50:33.148Z,180.56
2023-05-05T02:51:33.157Z,180.83
2023-05-05T02:52:33.226Z,178.62
2023-05-05T02:53:33.172Z,180.75
2023-05-05T02:54:33.202Z,179.84
2023-05-05T02:55:33.205Z,182.84
2023-05-05T02:56:33.251Z,177.84
2023-05-05T02:57:33.239Z,182.70
2023-05-05T02:58:33.237Z,181.34
2023-05-05T02:59:33.345Z,182.73
2023-05-05T03:00:33.347Z,182.68
2023-05-05T03:01:33.307Z,180.67
2023-05-05T03:02:33.410Z,177.43
2023-05-05T03:03:33.403Z,178.18
2023-05-05T03:04:33.369Z,180.98
2023-05-05T03:05:33.384Z,180.36
2023-05-05T03:06:33.391Z,183.53
2023-05-05T03:07:33.385Z,176.44
2023-05-05T03:08:33.448Z,180.87
2023-05-05T03:09:33.480Z,179.86
2023-05-05T03:10:33.449Z,181.86
2023-05-05T03:11:33.462Z,182.56
2023-05-05T03:12:33.490Z,176.23
2023-05-05T03:13:33.497Z,181.42
2023-05-05T03:14:33.594Z,183.47
2023-05-05T03:15:33.536Z,181.28
2023-05-05T03:16:33.601Z,179.52
2023-05-05T03:17:33.585Z,176.87
2023-05-05T03:18:33.576Z,180.82
2023-05-05T03:19:33.587Z,178.20
2023-05-05T03:20:33.619Z,180.72
2023-05-05T03:21:33.634Z,181.17
2023-05-05T03:22:33.637Z,179.88
2023-05-05T03:23:33.668Z,179.61
2023-05-05T03:24:33.684Z,179.53
2023-05-05T03:25:33.698Z,174.31
2023-05-05T03:26:33.712Z,182.49
2023-05-05T03:27:33.740Z,180.73
2023-05-05T03:28:33.757Z,177.76
2023-05-05T03:29:33.766Z,179.40
2023-05-05T03:30:33.787Z,183.08
2023-05-05T03:31:33.856Z,178.55
2023-05-05T03:32:33.851Z,176.85
2023-05-05T03:33:33.843Z,179.77
2023-05-05T03:34:33.864Z,179.65
2023-05-05T03:35:33.889Z,182.25
2023-05-05T03:36:33.903Z,177.87
2023-05-05T03:37:33.947Z,182.91
2023-05-05T03:38:33.940Z,176.17
2023-05-05T03:39:33.958Z,179.97
2023-05-05T03:40:43.569Z,181.96
2023-05-05T03:41:34.930Z,182.00
2023-05-05T03:42:33.884Z,175.02
2023-05-05T03:43:33.850Z,180.52
2023-05-05T03:44:33.802Z,181.38
2023-05-05T03:45:33.798Z,180.52
2023-05-05T03:46:33.726Z,179.35
2023-05-05T03:47:33.764Z,181.89
2023-05-05T03:48:33.641Z,184.31
2023-05-05T03:49:33.607Z,178.91
2023-05-05T03:50:33.632Z,178.99
2023-05-05T03:51:33.641Z,181.21
2023-05-05T03:52:33.665Z,177.39
2023-05-05T03:53:33.692Z,183.02
2023-05-05T03:54:33.700Z,181.53
2023-05-05T03:55:33.724Z,181.51
2023-05-05T03:56:33.757Z,181.84
2023-05-05T03:57:33.772Z,179.16
2023-05-05T03:58:33.790Z,178.72
2023-05-05T03:59:33.816Z,180.25
2023-05-05T04:00:33.832Z,177.22
2023-05-05T04:01:33.849Z,180.15
2023-05-05T04:02:33.929Z,180.69
2023-05-05T04:03:33.951Z,179.45
2023-05-05T04:04:33.969Z,182.38
2023-05-05T04:05:33.963Z,177.40
2023-05-05T04:06:33.979Z,178.92
2023-05-05T04:07:34.000Z,179.57
2023-05-05T04:08:34.020Z,178.44
2023-05-05T04:09:34.051Z,181.05
2023-05-05T04:10:34.077Z,176.60
2023-05-05T04:11:34.100Z,180.40
2023-05-05T04:12:34.167Z,177.07
2023-05-05T04:13:34.137Z,180.03
2023-05-05T04:14:34.179Z,177.51
2023-05-05T04:15:34.184Z,181.34
2023-05-05T04:16:34.210Z,180.97
2023-05-05T04:17:34.247Z,177.62
2023-05-05T04:18:34.258Z,181.14
2023-05-05T04:19:34.269Z,178.51
2023-05-05T04:20:34.271Z,176.88
2023-05-05T04:21:34.305Z,177.57
2023-05-05T04:22:34.325Z,175.49
2023-05-05T04:23:34.447Z,181.97
2023-05-05T04:24:34.361Z,178.88
2023-05-05T04:25:34.392Z,181.40
2023-05-05T04:26:34.419Z,175.00
2023-05-05T04:27:34.436Z,174.28
2023-05-05T04:28:34.477Z,174.16
2023-05-05T04:29:34.471Z,175.87
2023-05-05T04:30:34.499Z,176.23
2023-05-05T04:31:34.541Z,178.10
2023-05-05T04:32:34.541Z,172.73
2023-05-05T04:33:34.555Z,179.37
2023-05-05T04:34:34.589Z,171.33
2023-05-05T04:35:34.592Z,174.87
2023-05-05T04:36:34.617Z,177.42
2023-05-05T04:37:34.635Z,177.26
2023-05-05T04:38:34.650Z,174.94
2023-05-05T04:39:34.662Z,178.01
2023-05-05T04:40:34.677Z,178.27
2023-05-05T04:41:34.715Z,175.23
2023-05-05T04:42:34.722Z,172.75
2023-05-05T04:43:34.738Z,174.26
2023-05-05T04:44:34.751Z,176.77
2023-05-05T04:45:34.767Z,176.25
2023-05-05T04:46:34.839Z,174.88
2023-05-05T04:47:34.842Z,178.10
2023-05-05T04:48:34.832Z,173.41
2023-05-05T04:49:34.851Z,174.69
2023-05-05T04:50:34.870Z,175.26
2023-05-05T04:51:34.883Z,170.78
2023-05-05T04:52:34.897Z,171.56
2023-05-05T04:53:34.912Z,175.28
2023-05-05T04:54:34.928Z,172.62
2023-05-05T04:55:34.951Z,174.96
2023-05-05T04:56:34.960Z,175.02
2023-05-05T04:57:34.965Z,175.05
2023-05-05T04:58:34.979Z,174.37
2023-05-05T04:59:34.985Z,170.68
2023-05-05T05:00:35.010Z,176.95
2023-05-05T05:01:37.739Z,169.77
2023-05-05T05:02:35.063Z,175.83
2023-05-05T05:03:35.061Z,172.36
2023-05-05T05:04:34.884Z,174.76
2023-05-05T05:05:34.845Z,169.95
2023-05-05T05:06:34.806Z,178.37
2023-05-05T05:07:34.775Z,173.40
2023-05-05T05:08:34.715Z,176.50
2023-05-05T05:09:34.677Z,168.72
2023-05-05T05:10:34.638Z,171.40
2023-05-05T05:11:34.592Z,173.96
2023-05-05T05:12:34.598Z,170.44
2023-05-05T05:13:34.508Z,168.05
2023-05-05T05:14:34.464Z,176.49
2023-05-05T05:15:34.434Z,174.22
2023-05-05T05:16:34.474Z,172.07
2023-05-05T05:17:34.408Z,170.70
2023-05-05T05:18:34.332Z,175.16
2023-05-05T05:19:34.283Z,175.18
2023-05-05T05:20:34.263Z,170.64
2023-05-05T05:21:34.233Z,176.97
2023-05-05T05:22:34.167Z,176.41
2023-05-05T05:23:34.133Z,173.26
2023-05-05T05:24:34.092Z,179.30
2023-05-05T05:25:34.051Z,185.52
2023-05-05T05:26:33.997Z,179.10
2023-05-05T05:27:33.940Z,185.97
2023-05-05T05:28:33.899Z,178.51
2023-05-05T05:29:33.857Z,190.12
2023-05-05T05:30:33.798Z,193.01
2023-05-05T05:31:33.783Z,192.93
2023-05-05T05:32:33.721Z,199.24
2023-05-05T05:33:33.679Z,194.96
2023-05-05T05:34:33.641Z,200.45
2023-05-05T05:35:33.640Z,201.63
2023-05-05T05:36:33.574Z,196.96
2023-05-05T05:37:33.505Z,198.48
2023-05-05T05:38:33.453Z,190.38
2023-05-05T05:39:33.406Z,192.53
2023-05-05T05:40:33.362Z,191.56
2023-05-05T05:41:33.328Z,192.97
2023-05-05T05:42:33.274Z,194.71
2023-05-05T05:43:33.304Z,190.06
2023-05-05T05:44:33.181Z,192.55
2023-05-05T05:45:33.129Z,194.97
2023-05-05T05:46:33.244Z,190.87
2023-05-05T05:47:33.105Z,197.01
2023-05-05T05:48:32.996Z,193.19
2023-05-05T05:49:32.929Z,191.81
2023-05-05T05:50:32.919Z,192.34
2023-05-05T05:51:32.863Z,194.70
2023-05-05T05:52:32.778Z,193.92
2023-05-05T05:53:32.746Z,196.30
2023-05-05T05:54:32.691Z,192.55
2023-05-05T05:55:32.640Z,197.33
2023-05-05T05:56:32.617Z,193.72
2023-05-05T05:57:32.552Z,192.30
2023-05-05T05:58:32.495Z,191.65
2023-05-05T05:59:32.448Z,191.04
2023-05-05T06:00:32.396Z,188.46
2023-05-05T06:01:32.376Z,190.17
2023-05-05T06:02:32.356Z,190.22
2023-05-05T06:04:32.272Z,187.89
2023-05-05T06:05:32.185Z,186.12
2023-05-05T06:06:32.118Z,186.97
2023-05-05T06:07:32.059Z,187.09
2023-05-05T06:08:32.006Z,185.04
2023-05-05T06:09:31.954Z,185.52
2023-05-05T06:10:32.233Z,184.14
2023-05-05T06:11:31.873Z,180.94
2023-05-05T06:12:31.867Z,178.92
2023-05-05T06:13:31.813Z,178.53
2023-05-05T06:14:31.772Z,178.23
2023-05-05T06:15:31.815Z,177.75
2023-05-05T06:16:31.813Z,173.62
2023-05-05T06:17:31.783Z,177.72
2023-05-05T06:18:31.778Z,177.12
2023-05-05T06:19:31.766Z,177.81
2023-05-05T06:20:31.758Z,175.92
2023-05-05T06:21:31.766Z,176.02
2023-05-05T06:22:31.736Z,177.70
2023-05-05T06:23:31.732Z,173.10
2023-05-05T06:24:31.719Z,177.86
2023-05-05T06:25:31.768Z,176.29
2023-05-05T06:26:31.711Z,176.69
2023-05-05T06:27:31.686Z,174.21
2023-05-05T06:28:31.729Z,175.47
2023-05-05T06:29:31.686Z,176.60
2023-05-05T06:30:31.674Z,176.23
2023-05-05T06:31:32.655Z,176.64
2023-05-05T06:32:31.591Z,177.51
2023-05-05T06:33:31.494Z,179.73
2023-05-05T06:34:31.453Z,176.80
2023-05-05T06:35:31.376Z,178.88
2023-05-05T06:36:31.348Z,183.55
2023-05-05T06:37:31.257Z,192.01
2023-05-05T06:38:31.184Z,205.48
2023-05-05T06:39:31.116Z,216.01
2023-05-05T06:40:31.647Z,220.75
2023-05-05T06:41:30.992Z,226.26
2023-05-05T06:42:30.918Z,231.53
2023-05-05T06:43:30.858Z,238.35
2023-05-05T06:44:30.798Z,247.62
2023-05-05T06:45:30.739Z,250.00
2023-05-05T06:46:30.704Z,248.44
2023-05-05T06:47:30.621Z,250.30
2023-05-05T06:48:30.536Z,249.36
2023-05-05T06:49:30.456Z,250.00
2023-05-05T06:50:30.398Z,249.69
2023-05-05T06:51:30.373Z,250.00
2023-05-05T06:52:30.321Z,250.25
2023-05-05T06:53:30.299Z,249.48
2023-05-05T06:54:30.433Z,249.52
2023-05-05T06:55:30.308Z,249.89
2023-05-05T06:56:30.276Z,249.64
2023-05-05T06:57:30.283Z,250.00
2023-05-05T06:58:30.250Z,248.59
2023-05-05T06:59:30.239Z,250.00
2023-05-05T07:00:30.238Z,249.38
2023-05-05T07:01:30.201Z,250.00
2023-05-05T07:02:30.210Z,262.59
2023-05-05T07:03:30.149Z,253.93
2023-05-05T07:04:30.130Z,249.10
2023-05-05T07:05:30.091Z,247.66
2023-05-05T07:06:30.075Z,248.66
2023-05-05T07:07:30.035Z,249.91
2023-05-05T07:08:29.984Z,248.64
2023-05-05T07:09:29.995Z,250.00
2023-05-05T07:10:30.050Z,248.17
2023-05-05T07:11:29.892Z,249.65
2023-05-05T07:12:29.908Z,249.24
2023-05-05T07:13:29.877Z,249.35
2023-05-05T07:14:29.783Z,250.00
2023-05-05T07:15:29.969Z,249.84
2023-05-05T07:16:29.784Z,250.00
2023-05-05T07:17:29.711Z,250.39
2023-05-05T07:18:29.627Z,249.47
2023-05-05T07:19:29.584Z,250.18
2023-05-05T07:20:29.535Z,245.64
2023-05-05T07:21:29.520Z,232.85
2023-05-05T07:22:29.757Z,215.51
2023-05-05T07:23:29.507Z,205.45
2023-05-05T07:24:29.451Z,176.37
2023-05-05T07:25:29.394Z,157.38
2023-05-05T07:26:29.404Z,148.66
2023-05-05T07:27:29.290Z,135.27
2023-05-05T07:28:29.234Z,128.84
2023-05-05T07:29:29.199Z,128.36
2023-05-05T07:30:29.196Z,115.56
2023-05-05T07:31:29.182Z,112.48
2023-05-05T07:32:29.137Z,102.47
2023-05-05T07:33:29.059Z,80.74
2023-05-05T07:34:29.034Z,71.77
2023-05-05T07:35:29.015Z,73.74
2023-05-05T07:36:28.982Z,65.19
2023-05-05T07:37:28.957Z,73.62
2023-05-05T07:38:29.185Z,76.69
2023-05-05T07:39:28.936Z,78.10
2023-05-05T07:40:28.892Z,81.28
2023-05-05T07:41:28.847Z,77.52
2023-05-05T07:42:28.944Z,75.54
2023-05-05T07:43:28.776Z,91.91
2023-05-05T07:44:28.874Z,99.92
2023-05-05T07:45:28.685Z,99.21
2023-05-05T07:46:28.775Z,93.94
2023-05-05T07:47:28.621Z,88.54
2023-05-05T07:48:28.569Z,84.12
2023-05-05T07:49:28.498Z,79.82
2023-05-05T07:50:28.458Z,80.83
2023-05-05T07:51:28.401Z,79.61
2023-05-05T07:52:43.316Z,79.88
2023-05-05T07:53:29.291Z,80.00
2023-05-05T07:54:28.228Z,80.03
2023-05-05T07:55:28.160Z,80.93
2023-05-05T07:56:28.101Z,80.71
2023-05-05T07:57:28.063Z,81.35
2023-05-05T07:58:28.037Z,80.94
2023-05-05T07:59:29.584Z,79.61
2023-05-05T08:00:27.843Z,80.40
2023-05-05T08:01:27.781Z,81.80
2023-05-05T08:02:27.804Z,80.70
2023-05-05T08:03:27.766Z,83.65
2023-05-05T08:04:27.613Z,88.13
2023-05-05T08:05:27.539Z,86.92
2023-05-05T08:06:27.478Z,89.90
2023-05-05T08:07:27.429Z,95.43
2023-05-05T08:08:27.352Z,92.44
2023-05-05T08:09:27.274Z,89.40
2023-05-05T08:10:27.224Z,81.37
2023-05-05T08:11:29.466Z,46.83
2023-05-05T08:12:27.403Z,29.29
2023-05-05T08:13:27.103Z,26.30
2023-05-05T08:14:27.283Z,3.75
2023-05-05T08:15:26.989Z,0.00
2023-05-05T08:16:26.982Z,0.00
2023-05-05T08:17:26.881Z,0.00
2023-05-05T08:18:26.814Z,17.69
2023-05-05T08:19:29.280Z,33.54
2023-05-05T08:20:26.730Z,35.17
2023-05-05T08:21:26.661Z,38.47
2023-05-05T08:22:27.175Z,43.74
2023-05-05T08:23:26.592Z,45.79
2023-05-05T08:24:26.506Z,41.77
2023-05-05T08:25:26.454Z,24.53
2023-05-05T08:26:26.403Z,27.01
2023-05-05T08:27:26.362Z,32.92
2023-05-05T08:28:26.298Z,42.87
2023-05-05T08:29:26.266Z,44.57
2023-05-05T08:30:26.298Z,40.11
2023-05-05T08:31:26.153Z,41.26
2023-05-05T08:32:27.863Z,50.82
2023-05-05T08:33:26.016Z,48.44
2023-05-05T08:34:25.966Z,51.39
2023-05-05T08:35:25.920Z,50.99
2023-05-05T08:36:25.843Z,53.78
2023-05-05T08:37:25.805Z,60.46
2023-05-05T08:38:26.224Z,64.33
2023-05-05T08:39:25.678Z,66.08
2023-05-05T08:40:25.634Z,66.29
2023-05-05T08:41:25.593Z,68.17
2023-05-05T08:42:36.168Z,70.72
2023-05-05T08:43:26.458Z,71.10
2023-05-05T08:44:25.388Z,72.10
2023-05-05T08:45:25.326Z,74.53
2023-05-05T08:46:25.338Z,77.50
2023-05-05T08:47:25.206Z,82.21
2023-05-05T08:48:25.134Z,84.73
2023-05-05T08:49:25.064Z,87.46
2023-05-05T08:50:24.998Z,86.82
2023-05-05T08:51:24.986Z,88.69
2023-05-05T08:52:25.022Z,88.12
2023-05-05T08:53:24.973Z,89.61
2023-05-05T08:54:24.969Z,90.55
2023-05-05T08:55:24.969Z,92.95
2023-05-05T08:56:24.968Z,92.94
2023-05-05T08:57:24.989Z,94.62
2023-05-05T08:58:26.908Z,97.03
2023-05-05T08:59:24.894Z,100.54
2023-05-05T09:00:24.809Z,100.01
2023-05-05T09:01:24.803Z,99.33
2023-05-05T09:02:24.986Z,99.43
2023-05-05T09:03:24.793Z,99.51
2023-05-05T09:04:24.568Z,97.72
2023-05-05T09:05:24.482Z,99.63
2023-05-05T09:06:24.469Z,97.52
2023-05-05T09:07:24.352Z,98.47
2023-05-05T09:08:24.285Z,99.62
2023-05-05T09:09:24.216Z,99.82
2023-05-05T09:10:24.654Z,100.87
2023-05-05T09:11:24.091Z,100.84
2023-05-05T09:12:24.017Z,101.45
2023-05-05T09:13:23.958Z,101.95
2023-05-05T09:14:23.873Z,101.67
2023-05-05T09:15:23.819Z,103.17
2023-05-05T09:16:23.804Z,108.03
2023-05-05T09:17:23.746Z,112.53
2023-05-05T09:18:23.630Z,111.18
2023-05-05T09:19:23.551Z,112.47
2023-05-05T09:20:23.483Z,116.88
2023-05-05T09:21:23.418Z,117.76
2023-05-05T09:22:23.353Z,121.69
2023-05-05T09:23:23.291Z,124.28
2023-05-05T09:24:23.214Z,128.21
2023-05-05T09:25:23.147Z,130.14
2023-05-05T09:26:23.704Z,132.57
2023-05-05T09:27:22.998Z,135.55
2023-05-05T09:28:22.912Z,137.47
2023-05-05T09:29:22.821Z,138.99
2023-05-05T09:30:22.753Z,141.30
2023-05-05T09:31:22.812Z,140.93
2023-05-05T09:32:22.722Z,144.79
2023-05-05T09:33:22.567Z,145.42
2023-05-05T09:34:22.597Z,147.70
2023-05-05T09:35:22.540Z,148.62
2023-05-05T09:36:22.516Z,151.83
2023-05-05T09:37:22.497Z,154.39
2023-05-05T09:38:22.484Z,155.35
2023-05-05T09:39:22.459Z,157.29
2023-05-05T09:40:22.461Z,157.90
2023-05-05T09:41:22.416Z,161.47
2023-05-05T09:42:22.391Z,161.61
2023-05-05T09:43:22.387Z,163.70
2023-05-05T09:44:22.346Z,164.56
2023-05-05T09:45:22.309Z,165.86
2023-05-05T09:46:22.432Z,168.19
2023-05-05T09:47:29.344Z,169.34
2023-05-05T09:48:23.745Z,169.51
2023-05-05T09:49:22.115Z,169.82
2023-05-05T09:50:22.106Z,171.10
2023-05-05T09:51:21.955Z,172.70
2023-05-05T09:52:21.881Z,174.60
2023-05-05T09:53:21.850Z,177.11
2023-05-05T09:54:21.792Z,178.88
2023-05-05T09:55:21.639Z,180.36
2023-05-05T09:56:21.568Z,181.80
2023-05-05T09:57:21.499Z,183.31
2023-05-05T09:58:23.152Z,184.50
2023-05-05T09:59:21.394Z,186.47
2023-05-05T10:00:22.228Z,186.79
2023-05-05T10:01:21.365Z,187.52
2023-05-05T10:02:21.302Z,188.31
2023-05-05T10:03:21.291Z,187.71
2023-05-05T10:04:21.315Z,185.42
2023-05-05T10:05:21.299Z,184.37
2023-05-05T10:06:21.244Z,180.41
2023-05-05T10:07:21.143Z,175.07
2023-05-05T10:08:21.133Z,169.43
2023-05-05T10:09:21.085Z,167.32
2023-05-05T10:10:21.063Z,167.21
2023-05-05T10:11:21.040Z,166.16
2023-05-05T10:12:21.008Z,165.91
2023-05-05T10:13:21.021Z,167.60
2023-05-05T10:14:21.214Z,167.03
2023-05-05T10:15:21.006Z,166.62
2023-05-05T10:16:21.002Z,167.15
2023-05-05T10:17:20.976Z,165.98
2023-05-05T10:18:20.979Z,166.80
2023-05-05T10:19:21.636Z,166.85
2023-05-05T10:20:20.995Z,167.55
2023-05-05T10:21:20.960Z,167.54
2023-05-05T10:22:21.137Z,167.86
2023-05-05T10:23:20.970Z,168.14
2023-05-05T10:24:21.656Z,167.54
2023-05-05T10:25:20.978Z,167.90
2023-05-05T10:26:20.969Z,172.49
2023-05-05T10:27:20.975Z,170.47
2023-05-05T10:28:20.961Z,169.53
2023-05-05T10:29:20.960Z,170.24
2023-05-05T10:30:20.905Z,169.84
2023-05-05T10:31:26.296Z,169.32
2023-05-05T10:34:20.707Z,169.61
2023-05-05T10:35:20.601Z,169.93
2023-05-05T10:36:20.540Z,170.32
2023-05-05T10:37:20.472Z,170.96
2023-05-05T10:38:20.470Z,170.37
2023-05-05T10:39:20.354Z,171.44
2023-05-05T10:40:20.285Z,170.20
2023-05-05T10:41:20.223Z,171.15
2023-05-05T10:42:20.164Z,170.15
2023-05-05T10:43:20.109Z,169.02
2023-05-05T10:44:20.040Z,168.24
2023-05-05T10:45:20.824Z,169.24
2023-05-05T10:46:19.937Z,167.99
2023-05-05T10:47:19.861Z,169.46
2023-05-05T10:48:19.778Z,167.38
2023-05-05T10:49:19.793Z,168.41
2023-05-05T10:50:19.742Z,167.42
2023-05-05T10:51:31.070Z,167.19
2023-05-05T10:52:20.510Z,167.39
2023-05-05T10:53:19.442Z,167.57
2023-05-05T10:54:19.502Z,167.47
2023-05-05T10:55:19.347Z,166.80
2023-05-05T10:56:19.300Z,167.01
2023-05-05T10:57:19.325Z,166.70
2023-05-05T10:58:19.136Z,165.97
2023-05-05T10:59:19.084Z,165.93
2023-05-05T11:00:19.142Z,165.74
2023-05-05T11:01:18.989Z,164.34
2023-05-05T11:02:18.896Z,163.17
2023-05-05T11:03:18.867Z,163.18
2023-05-05T11:04:19.786Z,164.38
2023-05-05T11:05:18.703Z,164.23
2023-05-05T11:06:18.630Z,163.44
2023-05-05T11:07:18.564Z,164.45
2023-05-05T11:08:18.505Z,164.30
2023-05-05T11:09:18.415Z,161.43
2023-05-05T11:10:18.390Z,163.31
2023-05-05T11:11:18.273Z,164.26
2023-05-05T11:12:18.209Z,163.48
2023-05-05T11:13:18.227Z,162.34
2023-05-05T11:14:18.109Z,163.13
2023-05-05T11:15:18.065Z,164.39
2023-05-05T11:16:18.027Z,162.85
2023-05-05T11:17:17.999Z,161.53
2023-05-05T11:18:18.018Z,161.66
2023-05-05T11:19:17.881Z,161.99
2023-05-05T11:20:17.831Z,162.31
2023-05-05T11:21:17.915Z,161.27
2023-05-05T11:22:17.829Z,161.08
2023-05-05T11:23:17.782Z,159.77
2023-05-05T11:24:17.662Z,160.72
2023-05-05T11:25:17.631Z,160.32
2023-05-05T11:26:17.695Z,161.30
2023-05-05T11:27:17.518Z,161.26
2023-05-05T11:28:17.489Z,160.54
2023-05-05T11:29:17.436Z,161.72
2023-05-05T11:30:17.391Z,159.62
2023-05-05T11:31:17.404Z,160.49
2023-05-05T11:32:17.334Z,159.83
2023-05-05T11:33:17.268Z,159.98
2023-05-05T11:34:17.238Z,158.92
2023-05-05T11:35:17.201Z,160.60
2023-05-05T11:36:17.141Z,159.99
2023-05-05T11:37:17.115Z,158.66
2023-05-05T11:38:17.058Z,159.31
2023-05-05T11:39:17.092Z,159.12
2023-05-05T11:40:16.961Z,158.92
2023-05-05T11:41:16.911Z,158.21
2023-05-05T11:42:16.919Z,158.86
2023-05-05T11:43:16.819Z,158.46
2023-05-05T11:44:16.793Z,158.82
2023-05-05T11:45:16.726Z,157.03
2023-05-05T11:46:16.757Z,159.16
2023-05-05T11:47:16.725Z,159.61
2023-05-05T11:48:16.657Z,158.48
2023-05-05T11:49:16.595Z,158.01
2023-05-05T11:50:17.503Z,158.11
2023-05-05T11:51:16.452Z,158.15
2023-05-05T11:52:16.364Z,156.25
2023-05-05T11:53:16.303Z,158.04
2023-05-05T11:54:16.241Z,156.53
2023-05-05T11:55:16.183Z,157.70
2023-05-05T11:56:16.113Z,158.14
2023-05-05T11:57:16.051Z,156.19
2023-05-05T11:58:15.969Z,156.47
2023-05-05T11:59:15.908Z,154.95
2023-05-05T12:00:15.829Z,156.26
2023-05-05T12:01:15.773Z,155.61
2023-05-05T12:02:15.758Z,154.36
2023-05-05T12:03:15.796Z,153.64
2023-05-05T12:04:15.697Z,154.60
2023-05-05T12:05:15.504Z,153.11
2023-05-05T12:06:15.433Z,154.98
2023-05-05T12:07:15.378Z,152.73
2023-05-05T12:08:15.302Z,151.54
2023-05-05T12:09:15.245Z,152.08
2023-05-05T12:10:15.167Z,152.13
2023-05-05T12:11:15.104Z,152.73
2023-05-05T12:12:15.041Z,152.56
2023-05-05T12:13:14.968Z,150.97
2023-05-05T12:14:14.969Z,152.11
2023-05-05T12:15:14.839Z,151.91
2023-05-05T12:16:14.805Z,149.76
2023-05-05T12:17:14.703Z,150.49
2023-05-05T12:18:14.667Z,150.68
2023-05-05T12:19:14.609Z,150.34
2023-05-05T12:20:14.610Z,149.97
2023-05-05T12:21:14.534Z,150.23
2023-05-05T12:22:14.485Z,151.52
2023-05-05T12:23:14.434Z,149.85
2023-05-05T12:24:14.392Z,150.38
2023-05-05T12:25:14.343Z,150.41
2023-05-05T12:26:14.295Z,149.49
2023-05-05T12:27:14.257Z,149.14
2023-05-05T12:28:14.200Z,150.13
2023-05-05T12:29:14.161Z,150.12
2023-05-05T12:30:14.125Z,150.91
2023-05-05T12:31:14.297Z,148.29
2023-05-05T12:32:14.222Z,148.85
2023-05-05T12:33:13.996Z,148.77
2023-05-05T12:34:13.941Z,150.58